sensor_id;sensor_type;location;lat;lon;timestamp;temperature;humidity
6518;DHT22;3292;48.944;9.240;2023-08-01T00:00:11;18.00;99.90
6518;DHT22;3292;48.944;9.240;2023-08-01T00:02:39;18.00;99.90
6518;DHT22;3292;48.944;9.240;2023-08-01T00:05:08;18.00;99.90
6518;DHT22;3292;48.944;9.240;2023-08-01T00:07:36;18.00;99.90
6518;DHT22;3292;48.944;9.240;2023-08-01T00:10:03;18.00;99.90
6518;DHT22;3292;48.944;9.240;2023-08-01T00:12:30;18.00;99.90
6518;DHT22;3292;48.944;9.240;2023-08-01T00:14:57;18.00;99.90
6518;DHT22;3292;48.944;9.240;2023-08-01T00:17:24;18.00;99.90
6518;DHT22;3292;48.944;9.240;2023-08-01T00:19:51;18.00;99.90
6518;DHT22;3292;48.944;9.240;2023-08-01T00:22:18;17.90;99.90
6518;DHT22;3292;48.944;9.240;2023-08-01T00:24:46;17.90;99.90
6518;DHT22;3292;48.944;9.240;2023-08-01T00:27:13;17.90;99.90
6518;DHT22;3292;48.944;9.240;2023-08-01T00:29:40;17.80;99.90
6518;DHT22;3292;48.944;9.240;2023-08-01T00:32:07;17.80;99.90
6518;DHT22;3292;48.944;9.240;2023-08-01T00:34:34;17.80;99.90
6518;DHT22;3292;48.944;9.240;2023-08-01T00:37:00;17.70;99.90
6518;DHT22;3292;48.944;9.240;2023-08-01T00:39:27;17.70;99.90
6518;DHT22;3292;48.944;9.240;2023-08-01T00:41:55;17.70;99.90
6518;DHT22;3292;48.944;9.240;2023-08-01T00:44:22;17.70;99.90
6518;DHT22;3292;48.944;9.240;2023-08-01T00:46:49;17.60;99.90
6518;DHT22;3292;48.944;9.240;2023-08-01T00:49:16;17.50;99.90
6518;DHT22;3292;48.944;9.240;2023-08-01T00:51:43;17.50;99.90
6518;DHT22;3292;48.944;9.240;2023-08-01T00:54:10;17.40;99.90
6518;DHT22;3292;48.944;9.240;2023-08-01T00:56:37;17.40;99.90
6518;DHT22;3292;48.944;9.240;2023-08-01T00:59:06;17.30;99.90
6518;DHT22;3292;48.944;9.240;2023-08-01T01:01:33;17.30;99.90
6518;DHT22;3292;48.944;9.240;2023-08-01T01:04:00;17.30;99.90
6518;DHT22;3292;48.944;9.240;2023-08-01T01:06:31;17.30;99.90
6518;DHT22;3292;48.944;9.240;2023-08-01T01:08:58;17.30;99.90
6518;DHT22;3292;48.944;9.240;2023-08-01T01:11:25;17.30;99.90
6518;DHT22;3292;48.944;9.240;2023-08-01T01:13:52;17.30;99.90
6518;DHT22;3292;48.944;9.240;2023-08-01T01:16:21;17.20;99.90
6518;DHT22;3292;48.944;9.240;2023-08-01T01:18:47;17.30;99.90
6518;DHT22;3292;48.944;9.240;2023-08-01T01:21:15;17.30;99.90
6518;DHT22;3292;48.944;9.240;2023-08-01T01:23:42;17.40;99.90
6518;DHT22;3292;48.944;9.240;2023-08-01T01:26:10;17.40;99.90
6518;DHT22;3292;48.944;9.240;2023-08-01T01:28:38;17.40;99.90
6518;DHT22;3292;48.944;9.240;2023-08-01T01:31:06;17.40;99.90
6518;DHT22;3292;48.944;9.240;2023-08-01T01:33:34;17.40;99.90
6518;DHT22;3292;48.944;9.240;2023-08-01T01:36:01;17.50;99.90
6518;DHT22;3292;48.944;9.240;2023-08-01T01:38:29;17.50;99.90
6518;DHT22;3292;48.944;9.240;2023-08-01T01:40:56;17.50;99.90
6518;DHT22;3292;48.944;9.240;2023-08-01T01:43:23;17.50;99.90
6518;DHT22;3292;48.944;9.240;2023-08-01T01:45:49;17.50;99.90
6518;DHT22;3292;48.944;9.240;2023-08-01T01:48:16;17.50;99.90
6518;DHT22;3292;48.944;9.240;2023-08-01T01:50:43;17.40;99.90
6518;DHT22;3292;48.944;9.240;2023-08-01T01:53:10;17.40;99.90
6518;DHT22;3292;48.944;9.240;2023-08-01T01:55:38;17.40;99.90
6518;DHT22;3292;48.944;9.240;2023-08-01T01:58:05;17.30;99.90
6518;DHT22;3292;48.944;9.240;2023-08-01T02:00:32;17.30;99.90
6518;DHT22;3292;48.944;9.240;2023-08-01T02:02:59;17.30;99.90
6518;DHT22;3292;48.944;9.240;2023-08-01T02:05:28;17.30;99.90
6518;DHT22;3292;48.944;9.240;2023-08-01T02:07:55;17.30;99.90
6518;DHT22;3292;48.944;9.240;2023-08-01T02:10:22;17.30;99.90
6518;DHT22;3292;48.944;9.240;2023-08-01T02:12:50;17.30;99.90
6518;DHT22;3292;48.944;9.240;2023-08-01T02:15:17;17.30;99.90
6518;DHT22;3292;48.944;9.240;2023-08-01T02:17:43;17.30;99.90
6518;DHT22;3292;48.944;9.240;2023-08-01T02:20:11;17.20;99.90
6518;DHT22;3292;48.944;9.240;2023-08-01T02:22:37;17.30;99.90
6518;DHT22;3292;48.944;9.240;2023-08-01T02:25:05;17.20;99.90
6518;DHT22;3292;48.944;9.240;2023-08-01T02:27:32;17.20;99.90
6518;DHT22;3292;48.944;9.240;2023-08-01T02:30:00;17.20;99.90
6518;DHT22;3292;48.944;9.240;2023-08-01T02:32:27;17.20;99.90
6518;DHT22;3292;48.944;9.240;2023-08-01T02:34:53;17.20;99.90
6518;DHT22;3292;48.944;9.240;2023-08-01T02:37:20;17.20;99.90
6518;DHT22;3292;48.944;9.240;2023-08-01T02:39:47;17.10;99.90
6518;DHT22;3292;48.944;9.240;2023-08-01T02:42:14;17.10;99.90
6518;DHT22;3292;48.944;9.240;2023-08-01T02:44:41;17.10;99.90
6518;DHT22;3292;48.944;9.240;2023-08-01T02:47:09;17.10;99.90
6518;DHT22;3292;48.944;9.240;2023-08-01T02:49:35;17.10;99.90
6518;DHT22;3292;48.944;9.240;2023-08-01T02:52:03;17.10;99.90
6518;DHT22;3292;48.944;9.240;2023-08-01T02:54:30;17.10;99.90
6518;DHT22;3292;48.944;9.240;2023-08-01T02:56:56;17.00;99.90
6518;DHT22;3292;48.944;9.240;2023-08-01T02:59:23;17.00;99.90
6518;DHT22;3292;48.944;9.240;2023-08-01T03:01:50;17.10;99.90
6518;DHT22;3292;48.944;9.240;2023-08-01T03:04:18;17.10;99.90
6518;DHT22;3292;48.944;9.240;2023-08-01T03:06:45;17.10;99.90
6518;DHT22;3292;48.944;9.240;2023-08-01T03:09:12;17.10;99.90
6518;DHT22;3292;48.944;9.240;2023-08-01T03:11:39;17.10;99.90
6518;DHT22;3292;48.944;9.240;2023-08-01T03:14:05;17.00;99.90
6518;DHT22;3292;48.944;9.240;2023-08-01T03:16:32;17.00;99.90
6518;DHT22;3292;48.944;9.240;2023-08-01T03:18:59;17.00;99.90
6518;DHT22;3292;48.944;9.240;2023-08-01T03:21:31;17.10;99.90
6518;DHT22;3292;48.944;9.240;2023-08-01T03:23:59;17.10;99.90
6518;DHT22;3292;48.944;9.240;2023-08-01T03:26:26;17.10;99.90
6518;DHT22;3292;48.944;9.240;2023-08-01T03:28:53;17.10;99.90
6518;DHT22;3292;48.944;9.240;2023-08-01T03:31:20;17.10;99.90
6518;DHT22;3292;48.944;9.240;2023-08-01T03:33:47;17.10;99.90
6518;DHT22;3292;48.944;9.240;2023-08-01T03:36:14;17.10;99.90
6518;DHT22;3292;48.944;9.240;2023-08-01T03:38:42;17.10;99.90
6518;DHT22;3292;48.944;9.240;2023-08-01T03:41:10;17.10;99.90
6518;DHT22;3292;48.944;9.240;2023-08-01T03:43:36;17.10;99.90
6518;DHT22;3292;48.944;9.240;2023-08-01T03:46:03;17.10;99.90
6518;DHT22;3292;48.944;9.240;2023-08-01T03:48:30;17.00;99.90
6518;DHT22;3292;48.944;9.240;2023-08-01T03:50:57;17.00;99.90
6518;DHT22;3292;48.944;9.240;2023-08-01T03:53:24;17.00;99.90
6518;DHT22;3292;48.944;9.240;2023-08-01T03:55:52;17.00;99.90
6518;DHT22;3292;48.944;9.240;2023-08-01T03:58:19;17.10;99.90
6518;DHT22;3292;48.944;9.240;2023-08-01T04:00:45;17.00;99.90
6518;DHT22;3292;48.944;9.240;2023-08-01T04:03:12;17.00;99.90
6518;DHT22;3292;48.944;9.240;2023-08-01T04:05:39;17.10;99.90
6518;DHT22;3292;48.944;9.240;2023-08-01T04:08:07;17.00;99.90
6518;DHT22;3292;48.944;9.240;2023-08-01T04:10:33;17.20;99.90
6518;DHT22;3292;48.944;9.240;2023-08-01T04:13:01;17.10;99.90
6518;DHT22;3292;48.944;9.240;2023-08-01T04:15:28;17.10;99.90
6518;DHT22;3292;48.944;9.240;2023-08-01T04:17:55;17.10;99.90
6518;DHT22;3292;48.944;9.240;2023-08-01T04:20:22;17.10;99.90
6518;DHT22;3292;48.944;9.240;2023-08-01T04:22:49;17.20;99.90
6518;DHT22;3292;48.944;9.240;2023-08-01T04:25:16;17.20;99.90
6518;DHT22;3292;48.944;9.240;2023-08-01T04:27:42;17.20;99.90
6518;DHT22;3292;48.944;9.240;2023-08-01T04:30:11;17.20;99.90
6518;DHT22;3292;48.944;9.240;2023-08-01T04:32:38;17.30;99.90
6518;DHT22;3292;48.944;9.240;2023-08-01T04:35:05;17.30;99.90
6518;DHT22;3292;48.944;9.240;2023-08-01T04:37:32;17.30;99.90
6518;DHT22;3292;48.944;9.240;2023-08-01T04:39:59;17.30;99.90
6518;DHT22;3292;48.944;9.240;2023-08-01T04:42:26;17.30;99.90
6518;DHT22;3292;48.944;9.240;2023-08-01T04:44:53;17.30;99.90
6518;DHT22;3292;48.944;9.240;2023-08-01T04:47:21;17.30;99.90
6518;DHT22;3292;48.944;9.240;2023-08-01T04:49:48;17.30;99.90
6518;DHT22;3292;48.944;9.240;2023-08-01T04:52:15;17.30;99.90
6518;DHT22;3292;48.944;9.240;2023-08-01T04:54:41;17.20;99.90
6518;DHT22;3292;48.944;9.240;2023-08-01T04:57:08;17.20;99.90
6518;DHT22;3292;48.944;9.240;2023-08-01T04:59:35;17.20;99.90
6518;DHT22;3292;48.944;9.240;2023-08-01T05:02:02;17.30;99.90
6518;DHT22;3292;48.944;9.240;2023-08-01T05:04:30;17.20;99.90
6518;DHT22;3292;48.944;9.240;2023-08-01T05:06:57;17.30;99.90
6518;DHT22;3292;48.944;9.240;2023-08-01T05:09:23;17.40;99.90
6518;DHT22;3292;48.944;9.240;2023-08-01T05:11:50;17.40;99.90
6518;DHT22;3292;48.944;9.240;2023-08-01T05:14:17;17.40;99.90
6518;DHT22;3292;48.944;9.240;2023-08-01T05:16:44;17.30;99.90
6518;DHT22;3292;48.944;9.240;2023-08-01T05:19:10;17.30;99.90
6518;DHT22;3292;48.944;9.240;2023-08-01T05:21:38;17.30;99.90
6518;DHT22;3292;48.944;9.240;2023-08-01T05:24:05;17.30;99.90
6518;DHT22;3292;48.944;9.240;2023-08-01T05:26:32;17.30;99.90
6518;DHT22;3292;48.944;9.240;2023-08-01T05:28:59;17.40;99.90
6518;DHT22;3292;48.944;9.240;2023-08-01T05:31:26;17.30;99.90
6518;DHT22;3292;48.944;9.240;2023-08-01T05:33:52;17.30;99.90
6518;DHT22;3292;48.944;9.240;2023-08-01T05:36:19;17.30;99.90
6518;DHT22;3292;48.944;9.240;2023-08-01T05:38:47;17.40;99.90
6518;DHT22;3292;48.944;9.240;2023-08-01T05:41:14;17.40;99.90
6518;DHT22;3292;48.944;9.240;2023-08-01T05:43:41;17.40;99.90
6518;DHT22;3292;48.944;9.240;2023-08-01T05:46:07;17.50;99.90
6518;DHT22;3292;48.944;9.240;2023-08-01T05:48:34;17.50;99.90
6518;DHT22;3292;48.944;9.240;2023-08-01T05:51:01;17.60;99.90
6518;DHT22;3292;48.944;9.240;2023-08-01T05:53:28;17.60;99.90
6518;DHT22;3292;48.944;9.240;2023-08-01T05:55:57;17.60;99.90
6518;DHT22;3292;48.944;9.240;2023-08-01T05:58:24;17.60;99.90
6518;DHT22;3292;48.944;9.240;2023-08-01T06:00:50;17.70;99.90
6518;DHT22;3292;48.944;9.240;2023-08-01T06:03:17;17.70;99.90
6518;DHT22;3292;48.944;9.240;2023-08-01T06:05:44;17.70;99.90
6518;DHT22;3292;48.944;9.240;2023-08-01T06:08:11;17.70;99.90
6518;DHT22;3292;48.944;9.240;2023-08-01T06:10:40;17.70;99.90
6518;DHT22;3292;48.944;9.240;2023-08-01T06:13:09;17.70;99.90
6518;DHT22;3292;48.944;9.240;2023-08-01T06:15:35;17.70;99.90
6518;DHT22;3292;48.944;9.240;2023-08-01T06:18:02;17.70;99.90
6518;DHT22;3292;48.944;9.240;2023-08-01T06:20:29;17.70;99.90
6518;DHT22;3292;48.944;9.240;2023-08-01T06:22:56;17.70;99.90
6518;DHT22;3292;48.944;9.240;2023-08-01T06:25:23;17.70;99.90
6518;DHT22;3292;48.944;9.240;2023-08-01T06:27:50;17.70;99.90
6518;DHT22;3292;48.944;9.240;2023-08-01T06:30:18;17.70;99.90
6518;DHT22;3292;48.944;9.240;2023-08-01T06:32:45;17.80;99.90
6518;DHT22;3292;48.944;9.240;2023-08-01T06:35:11;17.70;99.90
6518;DHT22;3292;48.944;9.240;2023-08-01T06:37:38;17.60;99.90
6518;DHT22;3292;48.944;9.240;2023-08-01T06:40:06;17.50;99.90
6518;DHT22;3292;48.944;9.240;2023-08-01T06:42:33;17.40;99.90
6518;DHT22;3292;48.944;9.240;2023-08-01T06:45:00;17.30;99.90
6518;DHT22;3292;48.944;9.240;2023-08-01T06:47:28;17.30;99.90
6518;DHT22;3292;48.944;9.240;2023-08-01T06:49:55;17.10;99.90
6518;DHT22;3292;48.944;9.240;2023-08-01T06:52:22;17.00;99.90
6518;DHT22;3292;48.944;9.240;2023-08-01T06:54:48;17.00;99.90
6518;DHT22;3292;48.944;9.240;2023-08-01T06:57:15;17.00;99.90
6518;DHT22;3292;48.944;9.240;2023-08-01T06:59:42;16.90;99.90
6518;DHT22;3292;48.944;9.240;2023-08-01T07:02:09;16.90;99.90
6518;DHT22;3292;48.944;9.240;2023-08-01T07:04:37;16.80;99.90
6518;DHT22;3292;48.944;9.240;2023-08-01T07:07:04;16.80;99.90
6518;DHT22;3292;48.944;9.240;2023-08-01T07:09:31;16.80;99.90
6518;DHT22;3292;48.944;9.240;2023-08-01T07:11:58;16.80;99.90
6518;DHT22;3292;48.944;9.240;2023-08-01T07:14:25;16.80;99.90
6518;DHT22;3292;48.944;9.240;2023-08-01T07:16:52;16.80;99.90
6518;DHT22;3292;48.944;9.240;2023-08-01T07:19:19;16.80;99.90
6518;DHT22;3292;48.944;9.240;2023-08-01T07:21:47;16.80;99.90
6518;DHT22;3292;48.944;9.240;2023-08-01T07:24:15;16.80;99.90
6518;DHT22;3292;48.944;9.240;2023-08-01T07:26:41;16.80;99.90
6518;DHT22;3292;48.944;9.240;2023-08-01T07:29:08;16.80;99.90
6518;DHT22;3292;48.944;9.240;2023-08-01T07:31:37;16.80;99.90
6518;DHT22;3292;48.944;9.240;2023-08-01T07:34:03;16.80;99.90
6518;DHT22;3292;48.944;9.240;2023-08-01T07:36:30;16.80;99.90
6518;DHT22;3292;48.944;9.240;2023-08-01T07:38:58;16.90;99.90
6518;DHT22;3292;48.944;9.240;2023-08-01T07:41:25;16.80;99.90
6518;DHT22;3292;48.944;9.240;2023-08-01T07:43:52;16.90;99.90
6518;DHT22;3292;48.944;9.240;2023-08-01T07:46:19;16.80;99.90
6518;DHT22;3292;48.944;9.240;2023-08-01T07:48:45;16.80;99.90
6518;DHT22;3292;48.944;9.240;2023-08-01T07:51:12;16.80;99.90
6518;DHT22;3292;48.944;9.240;2023-08-01T07:53:38;16.70;99.90
6518;DHT22;3292;48.944;9.240;2023-08-01T07:56:06;16.70;99.90
6518;DHT22;3292;48.944;9.240;2023-08-01T07:58:34;16.70;99.90
6518;DHT22;3292;48.944;9.240;2023-08-01T08:01:03;16.80;99.90
6518;DHT22;3292;48.944;9.240;2023-08-01T08:03:30;16.70;99.90
6518;DHT22;3292;48.944;9.240;2023-08-01T08:05:57;16.80;99.90
6518;DHT22;3292;48.944;9.240;2023-08-01T08:08:24;16.80;99.90
6518;DHT22;3292;48.944;9.240;2023-08-01T08:10:52;16.80;99.90
6518;DHT22;3292;48.944;9.240;2023-08-01T08:13:20;16.80;99.90
6518;DHT22;3292;48.944;9.240;2023-08-01T08:15:47;16.80;99.90
6518;DHT22;3292;48.944;9.240;2023-08-01T08:18:14;16.80;99.90
6518;DHT22;3292;48.944;9.240;2023-08-01T08:20:42;16.90;99.90
6518;DHT22;3292;48.944;9.240;2023-08-01T08:23:09;16.80;99.90
6518;DHT22;3292;48.944;9.240;2023-08-01T08:25:36;16.80;99.90
6518;DHT22;3292;48.944;9.240;2023-08-01T08:28:03;17.00;99.90
6518;DHT22;3292;48.944;9.240;2023-08-01T08:30:32;17.00;99.90
6518;DHT22;3292;48.944;9.240;2023-08-01T08:32:58;17.00;99.90
6518;DHT22;3292;48.944;9.240;2023-08-01T08:35:29;17.00;99.90
6518;DHT22;3292;48.944;9.240;2023-08-01T08:37:58;17.10;99.90
6518;DHT22;3292;48.944;9.240;2023-08-01T08:40:25;17.10;99.90
6518;DHT22;3292;48.944;9.240;2023-08-01T08:42:52;17.10;99.90
6518;DHT22;3292;48.944;9.240;2023-08-01T08:45:20;17.10;99.90
6518;DHT22;3292;48.944;9.240;2023-08-01T08:47:52;17.10;99.90
6518;DHT22;3292;48.944;9.240;2023-08-01T08:50:20;17.10;99.90
6518;DHT22;3292;48.944;9.240;2023-08-01T08:52:47;17.10;99.90
6518;DHT22;3292;48.944;9.240;2023-08-01T08:55:15;17.20;99.90
6518;DHT22;3292;48.944;9.240;2023-08-01T08:57:42;17.20;99.90
6518;DHT22;3292;48.944;9.240;2023-08-01T09:00:11;17.20;99.90
6518;DHT22;3292;48.944;9.240;2023-08-01T09:02:38;17.30;99.90
6518;DHT22;3292;48.944;9.240;2023-08-01T09:05:07;17.40;99.90
6518;DHT22;3292;48.944;9.240;2023-08-01T09:07:35;17.40;99.90
6518;DHT22;3292;48.944;9.240;2023-08-01T09:10:06;17.40;99.90
6518;DHT22;3292;48.944;9.240;2023-08-01T09:12:34;17.50;99.90
6518;DHT22;3292;48.944;9.240;2023-08-01T09:15:01;17.40;99.90
6518;DHT22;3292;48.944;9.240;2023-08-01T09:17:28;17.50;99.90
6518;DHT22;3292;48.944;9.240;2023-08-01T09:19:57;17.50;99.90
6518;DHT22;3292;48.944;9.240;2023-08-01T09:22:40;17.40;99.90
6518;DHT22;3292;48.944;9.240;2023-08-01T09:25:07;17.40;99.90
6518;DHT22;3292;48.944;9.240;2023-08-01T09:27:34;17.30;99.90
6518;DHT22;3292;48.944;9.240;2023-08-01T09:30:06;17.30;99.90
6518;DHT22;3292;48.944;9.240;2023-08-01T09:32:33;17.30;99.90
6518;DHT22;3292;48.944;9.240;2023-08-01T09:35:00;17.30;99.90
6518;DHT22;3292;48.944;9.240;2023-08-01T09:37:37;17.30;99.90
6518;DHT22;3292;48.944;9.240;2023-08-01T09:40:05;17.30;99.90
6518;DHT22;3292;48.944;9.240;2023-08-01T09:42:38;17.30;99.90
6518;DHT22;3292;48.944;9.240;2023-08-01T09:45:11;17.30;99.90
6518;DHT22;3292;48.944;9.240;2023-08-01T09:47:38;17.40;99.90
6518;DHT22;3292;48.944;9.240;2023-08-01T09:50:05;17.40;99.90
6518;DHT22;3292;48.944;9.240;2023-08-01T09:52:33;17.50;99.90
6518;DHT22;3292;48.944;9.240;2023-08-01T09:55:01;17.50;99.90
6518;DHT22;3292;48.944;9.240;2023-08-01T09:57:29;17.50;99.90
6518;DHT22;3292;48.944;9.240;2023-08-01T09:59:57;17.40;99.90
6518;DHT22;3292;48.944;9.240;2023-08-01T10:02:25;17.40;99.90
6518;DHT22;3292;48.944;9.240;2023-08-01T10:04:53;17.40;99.90
6518;DHT22;3292;48.944;9.240;2023-08-01T10:07:24;17.50;99.90
6518;DHT22;3292;48.944;9.240;2023-08-01T10:09:53;17.50;99.90
6518;DHT22;3292;48.944;9.240;2023-08-01T10:12:22;17.60;99.90
6518;DHT22;3292;48.944;9.240;2023-08-01T10:14:51;17.70;99.90
6518;DHT22;3292;48.944;9.240;2023-08-01T10:17:19;17.80;99.90
6518;DHT22;3292;48.944;9.240;2023-08-01T10:19:49;17.90;99.90
6518;DHT22;3292;48.944;9.240;2023-08-01T10:22:16;17.90;99.90
6518;DHT22;3292;48.944;9.240;2023-08-01T10:24:44;17.90;99.90
6518;DHT22;3292;48.944;9.240;2023-08-01T10:27:12;17.90;99.90
6518;DHT22;3292;48.944;9.240;2023-08-01T10:29:41;18.00;99.90
6518;DHT22;3292;48.944;9.240;2023-08-01T10:32:09;18.10;99.90
6518;DHT22;3292;48.944;9.240;2023-08-01T10:34:36;18.10;99.90
6518;DHT22;3292;48.944;9.240;2023-08-01T10:37:04;18.10;99.90
6518;DHT22;3292;48.944;9.240;2023-08-01T10:39:31;18.10;99.90
6518;DHT22;3292;48.944;9.240;2023-08-01T10:41:58;18.10;99.90
6518;DHT22;3292;48.944;9.240;2023-08-01T10:44:27;18.40;99.90
6518;DHT22;3292;48.944;9.240;2023-08-01T10:47:00;18.70;99.90
6518;DHT22;3292;48.944;9.240;2023-08-01T10:49:35;19.10;99.90
6518;DHT22;3292;48.944;9.240;2023-08-01T10:52:03;19.30;99.90
6518;DHT22;3292;48.944;9.240;2023-08-01T10:54:30;19.50;99.90
6518;DHT22;3292;48.944;9.240;2023-08-01T10:56:59;19.50;99.90
6518;DHT22;3292;48.944;9.240;2023-08-01T10:59:27;19.60;99.90
6518;DHT22;3292;48.944;9.240;2023-08-01T11:02:00;19.50;99.90
6518;DHT22;3292;48.944;9.240;2023-08-01T11:04:27;19.40;99.90
6518;DHT22;3292;48.944;9.240;2023-08-01T11:06:55;19.20;99.90
6518;DHT22;3292;48.944;9.240;2023-08-01T11:09:23;19.30;99.90
6518;DHT22;3292;48.944;9.240;2023-08-01T11:11:52;19.60;99.90
6518;DHT22;3292;48.944;9.240;2023-08-01T11:14:19;20.00;99.90
6518;DHT22;3292;48.944;9.240;2023-08-01T11:16:49;20.30;99.90
6518;DHT22;3292;48.944;9.240;2023-08-01T11:19:22;20.50;99.90
6518;DHT22;3292;48.944;9.240;2023-08-01T11:21:50;20.50;99.90
6518;DHT22;3292;48.944;9.240;2023-08-01T11:24:18;20.60;99.90
6518;DHT22;3292;48.944;9.240;2023-08-01T11:26:47;20.70;99.90
6518;DHT22;3292;48.944;9.240;2023-08-01T11:29:15;20.80;99.90
6518;DHT22;3292;48.944;9.240;2023-08-01T11:31:52;20.90;99.90
6518;DHT22;3292;48.944;9.240;2023-08-01T11:34:20;21.00;99.90
6518;DHT22;3292;48.944;9.240;2023-08-01T11:36:48;21.10;99.90
6518;DHT22;3292;48.944;9.240;2023-08-01T11:39:16;21.30;99.90
6518;DHT22;3292;48.944;9.240;2023-08-01T11:41:43;21.40;99.90
6518;DHT22;3292;48.944;9.240;2023-08-01T11:44:10;21.30;99.90
6518;DHT22;3292;48.944;9.240;2023-08-01T11:46:38;21.40;99.90
6518;DHT22;3292;48.944;9.240;2023-08-01T11:49:07;21.50;99.90
6518;DHT22;3292;48.944;9.240;2023-08-01T11:51:40;21.60;99.90
6518;DHT22;3292;48.944;9.240;2023-08-01T11:54:08;21.80;99.90
6518;DHT22;3292;48.944;9.240;2023-08-01T11:56:36;21.90;99.90
6518;DHT22;3292;48.944;9.240;2023-08-01T11:59:10;21.80;99.90
6518;DHT22;3292;48.944;9.240;2023-08-01T12:01:40;22.00;99.90
6518;DHT22;3292;48.944;9.240;2023-08-01T12:04:07;22.10;99.90
6518;DHT22;3292;48.944;9.240;2023-08-01T12:06:34;22.00;99.90
6518;DHT22;3292;48.944;9.240;2023-08-01T12:09:11;22.00;99.90
6518;DHT22;3292;48.944;9.240;2023-08-01T12:11:39;22.00;99.90
6518;DHT22;3292;48.944;9.240;2023-08-01T12:14:08;22.00;99.90
6518;DHT22;3292;48.944;9.240;2023-08-01T12:16:36;22.00;99.90
6518;DHT22;3292;48.944;9.240;2023-08-01T12:19:03;22.20;99.90
6518;DHT22;3292;48.944;9.240;2023-08-01T12:21:30;22.40;99.90
6518;DHT22;3292;48.944;9.240;2023-08-01T12:23:58;22.40;99.90
6518;DHT22;3292;48.944;9.240;2023-08-01T12:26:26;22.60;99.90
6518;DHT22;3292;48.944;9.240;2023-08-01T12:28:53;22.90;99.90
6518;DHT22;3292;48.944;9.240;2023-08-01T12:31:21;23.10;99.90
6518;DHT22;3292;48.944;9.240;2023-08-01T12:33:48;22.90;99.90
6518;DHT22;3292;48.944;9.240;2023-08-01T12:36:15;22.40;99.90
6518;DHT22;3292;48.944;9.240;2023-08-01T12:38:42;22.10;99.90
6518;DHT22;3292;48.944;9.240;2023-08-01T12:41:09;21.90;99.90
6518;DHT22;3292;48.944;9.240;2023-08-01T12:43:37;21.80;99.90
6518;DHT22;3292;48.944;9.240;2023-08-01T12:46:04;21.80;99.90
6518;DHT22;3292;48.944;9.240;2023-08-01T12:48:31;22.10;99.90
6518;DHT22;3292;48.944;9.240;2023-08-01T12:50:58;22.40;99.90
6518;DHT22;3292;48.944;9.240;2023-08-01T12:53:25;22.60;99.90
6518;DHT22;3292;48.944;9.240;2023-08-01T12:55:54;22.60;99.90
6518;DHT22;3292;48.944;9.240;2023-08-01T12:58:21;22.80;99.90
6518;DHT22;3292;48.944;9.240;2023-08-01T13:00:49;22.90;99.90
6518;DHT22;3292;48.944;9.240;2023-08-01T13:03:16;23.10;99.90
6518;DHT22;3292;48.944;9.240;2023-08-01T13:05:43;23.20;99.90
6518;DHT22;3292;48.944;9.240;2023-08-01T13:08:10;23.20;99.90
6518;DHT22;3292;48.944;9.240;2023-08-01T13:10:37;23.30;99.90
6518;DHT22;3292;48.944;9.240;2023-08-01T13:13:05;23.40;99.90
6518;DHT22;3292;48.944;9.240;2023-08-01T13:15:31;23.60;99.90
6518;DHT22;3292;48.944;9.240;2023-08-01T13:18:00;23.60;99.90
6518;DHT22;3292;48.944;9.240;2023-08-01T13:20:27;23.50;99.90
6518;DHT22;3292;48.944;9.240;2023-08-01T13:22:54;23.60;99.90
6518;DHT22;3292;48.944;9.240;2023-08-01T13:25:20;23.50;99.90
6518;DHT22;3292;48.944;9.240;2023-08-01T13:27:47;23.40;99.90
6518;DHT22;3292;48.944;9.240;2023-08-01T13:30:14;23.40;99.90
6518;DHT22;3292;48.944;9.240;2023-08-01T13:32:43;23.40;99.90
6518;DHT22;3292;48.944;9.240;2023-08-01T13:35:11;23.50;99.90
6518;DHT22;3292;48.944;9.240;2023-08-01T13:37:38;23.50;99.90
6518;DHT22;3292;48.944;9.240;2023-08-01T13:40:06;23.60;99.90
6518;DHT22;3292;48.944;9.240;2023-08-01T13:42:33;23.70;99.90
6518;DHT22;3292;48.944;9.240;2023-08-01T13:45:00;23.80;99.90
6518;DHT22;3292;48.944;9.240;2023-08-01T13:47:27;24.00;99.90
6518;DHT22;3292;48.944;9.240;2023-08-01T13:49:54;23.80;99.90
6518;DHT22;3292;48.944;9.240;2023-08-01T13:52:22;24.00;99.90
6518;DHT22;3292;48.944;9.240;2023-08-01T13:54:48;24.00;99.90
6518;DHT22;3292;48.944;9.240;2023-08-01T13:57:15;24.10;99.90
6518;DHT22;3292;48.944;9.240;2023-08-01T13:59:42;24.30;99.90
6518;DHT22;3292;48.944;9.240;2023-08-01T14:02:10;24.50;99.90
6518;DHT22;3292;48.944;9.240;2023-08-01T14:04:36;24.30;99.90
6518;DHT22;3292;48.944;9.240;2023-08-01T14:07:03;24.20;99.90
6518;DHT22;3292;48.944;9.240;2023-08-01T14:09:31;24.20;99.90
6518;DHT22;3292;48.944;9.240;2023-08-01T14:12:01;24.10;99.90
6518;DHT22;3292;48.944;9.240;2023-08-01T14:14:28;24.20;99.90
6518;DHT22;3292;48.944;9.240;2023-08-01T14:16:55;24.00;99.90
6518;DHT22;3292;48.944;9.240;2023-08-01T14:19:22;24.00;99.90
6518;DHT22;3292;48.944;9.240;2023-08-01T14:21:49;23.80;99.90
6518;DHT22;3292;48.944;9.240;2023-08-01T14:24:15;23.50;99.90
6518;DHT22;3292;48.944;9.240;2023-08-01T14:26:43;23.50;99.90
6518;DHT22;3292;48.944;9.240;2023-08-01T14:29:10;23.50;99.90
6518;DHT22;3292;48.944;9.240;2023-08-01T14:31:39;23.70;99.90
6518;DHT22;3292;48.944;9.240;2023-08-01T14:34:06;23.90;99.90
6518;DHT22;3292;48.944;9.240;2023-08-01T14:36:33;23.90;99.90
6518;DHT22;3292;48.944;9.240;2023-08-01T14:38:59;23.80;99.90
6518;DHT22;3292;48.944;9.240;2023-08-01T14:41:26;23.60;99.90
6518;DHT22;3292;48.944;9.240;2023-08-01T14:43:54;23.70;99.90
6518;DHT22;3292;48.944;9.240;2023-08-01T14:46:21;23.80;99.90
6518;DHT22;3292;48.944;9.240;2023-08-01T14:48:48;23.80;99.90
6518;DHT22;3292;48.944;9.240;2023-08-01T14:51:15;23.40;99.90
6518;DHT22;3292;48.944;9.240;2023-08-01T14:53:41;23.10;99.90
6518;DHT22;3292;48.944;9.240;2023-08-01T14:56:08;23.20;99.90
6518;DHT22;3292;48.944;9.240;2023-08-01T14:58:36;23.50;99.90
6518;DHT22;3292;48.944;9.240;2023-08-01T15:01:11;23.40;99.90
6518;DHT22;3292;48.944;9.240;2023-08-01T15:03:38;23.20;99.90
6518;DHT22;3292;48.944;9.240;2023-08-01T15:06:05;22.90;99.90
6518;DHT22;3292;48.944;9.240;2023-08-01T15:08:33;22.60;99.90
6518;DHT22;3292;48.944;9.240;2023-08-01T15:11:03;22.70;99.90
6518;DHT22;3292;48.944;9.240;2023-08-01T15:13:30;22.70;99.90
6518;DHT22;3292;48.944;9.240;2023-08-01T15:15:57;22.70;99.90
6518;DHT22;3292;48.944;9.240;2023-08-01T15:18:25;22.70;99.90
6518;DHT22;3292;48.944;9.240;2023-08-01T15:20:52;22.80;99.90
6518;DHT22;3292;48.944;9.240;2023-08-01T15:23:19;22.90;99.90
6518;DHT22;3292;48.944;9.240;2023-08-01T15:25:54;23.00;99.90
6518;DHT22;3292;48.944;9.240;2023-08-01T15:28:22;23.00;99.90
6518;DHT22;3292;48.944;9.240;2023-08-01T15:30:49;22.90;99.90
6518;DHT22;3292;48.944;9.240;2023-08-01T15:33:16;22.70;99.90
6518;DHT22;3292;48.944;9.240;2023-08-01T15:35:44;22.70;99.90
6518;DHT22;3292;48.944;9.240;2023-08-01T15:38:11;22.90;99.90
6518;DHT22;3292;48.944;9.240;2023-08-01T15:40:38;23.10;99.90
6518;DHT22;3292;48.944;9.240;2023-08-01T15:43:05;23.10;99.90
6518;DHT22;3292;48.944;9.240;2023-08-01T15:45:32;23.10;99.90
6518;DHT22;3292;48.944;9.240;2023-08-01T15:47:58;22.70;99.90
6518;DHT22;3292;48.944;9.240;2023-08-01T15:50:25;22.50;99.90
6518;DHT22;3292;48.944;9.240;2023-08-01T15:52:53;22.30;99.90
6518;DHT22;3292;48.944;9.240;2023-08-01T15:55:20;22.30;99.90
6518;DHT22;3292;48.944;9.240;2023-08-01T15:57:47;22.20;99.90
6518;DHT22;3292;48.944;9.240;2023-08-01T16:00:14;22.20;99.90
6518;DHT22;3292;48.944;9.240;2023-08-01T16:02:41;22.20;99.90